map of MDL home
MDL - Airport
Location
City:  Mandalay, Mandalay, Myanmar (Burma)
Name:Mandalay International Airport
ICAO:VYMD
IATA:MDL

Details
Type:Airport (Aerodrome, Airfield)
Use:Public/Civil, International (customs port of entry)
Latitude:21°42'08"N (21.702156)
Longitude:95°58'41"E (95.977928)
Datum:WGS 1984
Elevation:300 ft (91 m)
Variation:0.77°W (WMM2015v2 magnetic declination)
-0.03° annual change
Runways:1
Longest:14003 × 200 ft (4268 × 61 m), paved

Time
Time Zone:UTC+6:30
Local Time:

Weather
METAR:VYMD 041330Z 01003KT 5000 HZ NSC 19/14 Q1013
TAF:VYMD 041100Z 0412/0512 36003KT 6000 FEW020
TEMPO 0412/0418 34003KT 5000 HZ

Related Locations
Nearby:
Farthest:SCFX: 12034 mi / 19367 km
Isla San Félix, Desventuradas Islands, VS, CL

Find:

   beyond  
but within

Other Information
Maps:
NOTAMs:
Links:
Sources:

  
  • flag of Myanmar (Burma)
  • flag of Mandalay
  

Sectional Chart

Flight Planning
at skyvector.com

Satellite Image

Google Maps Satellite view

 

Copyright © 2004-2019 Karl L. Swartz. All rights reserved.
The Great Circle Mapper name and logo are trademarks of the Great Circle Mapper.
All other trademarks mentioned herein belong to their respective owners.
Please see credits for attibutions and further copyright information.

  Follow gcmap on Facebook Follow gcmap on Twitter GCmap on LinkedIn

hCard Microformat

Geo Microformat